Time;durP1;ratioP1;P1;durP2;ratioP2;P2;SDS_P1;SDS_P2;PMS_P1;PMS_P2;Temp;Humidity;BMP_temperature;BMP_pressure;BME280_temperature;BME280_humidity;BME280_pressure;Samples;Min_cycle;Max_cycle;Signal;HPM_P1;HPM_P2
2021/11/18 00:00:45;;;;;;;11.77;8.27;;;7.80;1.00;;;;;;5051760;28;20981;-59
2021/11/18 00:03:12;;;;;;;10.03;8.00;;;9.10;1.00;;;;;;5050350;28;20454;-60
2021/11/18 00:05:38;;;;;;;12.73;8.90;;;7.90;1.00;;;;;;5051373;28;20824;-59
2021/11/18 00:08:05;;;;;;;13.37;9.10;;;7.80;1.00;;;;;;5058380;28;20812;-59
2021/11/18 00:10:37;;;;;;;11.77;7.40;;;7.40;1.00;;;;;;5050611;28;20443;-59
2021/11/18 00:13:05;;;;;;;9.93;8.00;;;8.00;1.00;;;;;;5050654;28;20443;-58
2021/11/18 00:15:33;;;;;;;15.40;7.57;;;8.00;1.00;;;;;;5052241;28;20954;-58
2021/11/18 00:18:01;;;;;;;16.40;9.50;;;8.00;1.00;;;;;;5050858;28;20438;-57
2021/11/18 00:20:28;;;;;;;10.93;8.30;;;;;;;;;;5051149;28;20554;-59
2021/11/18 00:22:54;;;;;;;10.67;7.57;;;8.00;1.00;;;;;;5051883;28;20806;-59
2021/11/18 00:25:20;;;;;;;10.80;8.47;;;8.10;1.00;;;;;;5051051;28;20445;-58
2021/11/18 00:27:46;;;;;;;9.67;7.80;;;;;;;;;;5051241;28;20442;-59
2021/11/18 00:30:13;;;;;;;12.23;9.00;;;8.00;1.00;;;;;;5051361;28;20443;-60
2021/11/18 00:32:40;;;;;;;11.97;8.83;;;8.10;1.00;;;;;;5051405;28;20482;-59
2021/11/18 00:35:08;;;;;;;12.23;8.40;;;8.10;1.00;;;;;;5050494;28;21232;-59
2021/11/18 00:37:34;;;;;;;15.03;9.57;;;8.00;1.00;;;;;;5050045;28;20972;-59
2021/11/18 00:40:00;;;;;;;12.47;9.57;;;8.10;1.00;;;;;;5050425;28;20520;-59
2021/11/18 00:42:26;;;;;;;12.83;8.63;;;;;;;;;;5051345;28;20458;-58
2021/11/18 00:44:54;;;;;;;11.37;9.33;;;7.90;1.00;;;;;;5051053;28;20471;-58
2021/11/18 00:47:20;;;;;;;12.57;8.97;;;8.00;1.00;;;;;;5050273;28;20463;-58
2021/11/18 00:49:46;;;;;;;14.70;9.27;;;8.40;1.00;;;;;;5051011;28;20441;-58
2021/11/18 00:52:11;;;;;;;11.70;8.70;;;8.00;1.00;;;;;;5050624;28;20188;-59
2021/11/18 00:54:37;;;;;;;11.93;8.07;;;;;;;;;;5050566;28;20196;-59
2021/11/18 00:57:03;;;;;;;14.77;9.20;;;;;;;;;;5049361;28;20246;-60
2021/11/18 00:59:30;;;;;;;10.73;8.30;;;;;;;;;;5051076;28;20947;-58
2021/11/18 01:01:56;;;;;;;12.80;8.83;;;;;;;;;;5050090;28;20481;-59
2021/11/18 01:04:23;;;;;;;13.30;8.63;;;8.10;1.00;;;;;;5050841;28;20467;-60
2021/11/18 01:06:49;;;;;;;11.07;8.00;;;8.40;1.00;;;;;;5050248;28;20477;-58
2021/11/18 01:09:15;;;;;;;13.90;8.90;;;8.50;1.00;;;;;;5050226;28;20483;-60
2021/11/18 01:11:41;;;;;;;12.07;8.40;;;8.60;1.00;;;;;;5050664;28;20181;-58
2021/11/18 01:14:09;;;;;;;10.43;8.10;;;8.60;1.00;;;;;;5050338;28;20839;-58
2021/11/18 01:16:37;;;;;;;11.80;8.10;;;8.50;1.00;;;;;;5050079;28;20468;-60
2021/11/18 01:19:06;;;;;;;12.17;7.60;;;8.50;1.00;;;;;;5049331;28;20451;-60
2021/11/18 01:21:33;;;;;;;11.27;7.80;;;8.40;1.00;;;;;;5049899;28;20414;-61
2021/11/18 01:23:59;;;;;;;11.27;7.77;;;8.40;1.00;;;;;;5048165;28;20442;-58
2021/11/18 01:26:26;;;;;;;10.20;7.57;;;;;;;;;;5049917;28;20541;-59
2021/11/18 01:28:52;;;;;;;10.27;7.60;;;8.70;1.00;;;;;;5050014;28;20500;-59
2021/11/18 01:31:18;;;;;;;9.60;7.50;;;8.50;1.00;;;;;;5050058;28;20529;-58
2021/11/18 01:33:44;;;;;;;9.60;7.97;;;;;;;;;;5049651;28;20439;-58
2021/11/18 01:36:11;;;;;;;11.57;8.10;;;8.40;1.00;;;;;;5050379;28;20508;-58
2021/11/18 01:38:37;;;;;;;9.50;7.90;;;;;;;;;;5048922;28;20454;-59
2021/11/18 01:41:10;;;;;;;8.50;6.80;;;8.60;1.00;;;;;;5050028;28;20447;-58
2021/11/18 01:43:48;;;;;;;12.30;7.10;;;8.40;1.00;;;;;;5048490;28;20459;-59
2021/11/18 01:46:21;;;;;;;10.50;6.17;;;8.30;1.00;;;;;;5048410;28;20475;-58
2021/11/18 01:48:49;;;;;;;11.10;7.10;;;8.20;1.00;;;;;;5048600;28;20536;-59
2021/11/18 01:51:16;;;;;;;12.50;7.17;;;8.10;1.00;;;;;;5049693;28;20447;-58
2021/11/18 01:53:44;;;;;;;9.87;7.37;;;;;;;;;;5049658;28;20465;-59
2021/11/18 01:56:16;;;;;;;10.63;7.80;;;8.10;1.00;;;;;;5048593;28;20446;-59
2021/11/18 01:58:44;;;;;;;10.80;7.30;;;8.00;1.00;;;;;;5049450;28;20447;-59
2021/11/18 02:01:10;;;;;;;10.67;7.30;;;8.00;1.00;;;;;;5049174;28;20436;-58
2021/11/18 02:03:37;;;;;;;12.00;8.03;;;7.90;1.00;;;;;;5049229;28;20447;-59
2021/11/18 02:06:15;;;;;;;12.03;8.40;;;8.10;1.00;;;;;;5049345;28;20538;-58
2021/11/18 02:08:41;;;;;;;10.07;6.60;;;7.90;1.00;;;;;;5049446;28;20434;-59
2021/11/18 02:11:28;;;;;;;13.40;7.73;;;7.80;1.00;;;;;;5049366;28;20767;-59
2021/11/18 02:13:55;;;;;;;12.80;8.20;;;7.70;1.00;;;;;;5049038;28;20180;-59
2021/11/18 02:16:22;;;;;;;12.07;7.77;;;7.80;1.00;;;;;;5049760;28;20443;-59
2021/11/18 02:18:49;;;;;;;10.33;7.20;;;;;;;;;;5048846;28;20473;-58
2021/11/18 02:21:15;;;;;;;14.73;8.30;;;;;;;;;;5048336;28;20895;-59
2021/11/18 02:23:52;;;;;;;9.43;7.43;;;7.80;1.00;;;;;;5049346;28;20492;-59
2021/11/18 02:26:19;;;;;;;6.87;6.07;;;7.80;1.00;;;;;;5049330;28;21218;-60
2021/11/18 02:28:46;;;;;;;13.73;8.17;;;7.90;1.00;;;;;;5049724;28;20953;-59
2021/11/18 02:31:32;;;;;;;12.03;8.37;;;7.80;1.00;;;;;;5049010;28;20781;-59
2021/11/18 02:33:59;;;;;;;9.33;6.73;;;7.80;1.00;;;;;;5049498;28;20434;-59
2021/11/18 02:36:25;;;;;;;10.00;7.67;;;7.70;1.00;;;;;;5049507;28;20430;-58
2021/11/18 02:38:51;;;;;;;9.20;7.40;;;;;;;;;;5049115;28;20865;-58
2021/11/18 02:41:17;;;;;;;10.80;7.60;;;7.70;1.00;;;;;;5048971;28;20482;-58
2021/11/18 02:43:44;;;;;;;10.63;7.83;;;7.60;1.00;;;;;;5049115;28;20475;-59
2021/11/18 02:46:10;;;;;;;12.03;7.90;;;;;;;;;;5048547;28;20872;-58
2021/11/18 02:48:37;;;;;;;11.77;8.23;;;7.70;1.00;;;;;;5049528;28;20527;-60
2021/11/18 02:51:05;;;;;;;13.37;7.57;;;7.80;1.00;;;;;;5049019;28;20433;-57
2021/11/18 02:53:32;;;;;;;13.40;8.57;;;;;;;;;;5049350;28;20447;-58
2021/11/18 02:55:58;;;;;;;9.90;7.80;;;7.60;1.00;;;;;;5049230;28;20501;-59
2021/11/18 02:58:24;;;;;;;10.83;7.17;;;;;;;;;;5047605;28;20823;-59
2021/11/18 03:01:24;;;;;;;10.40;7.30;;;7.70;1.00;;;;;;5049607;28;20447;-59
2021/11/18 03:03:50;;;;;;;13.23;7.90;;;;;;;;;;5046900;28;20974;-58
2021/11/18 03:06:16;;;;;;;14.70;9.70;;;7.90;1.00;;;;;;5052828;28;20470;-58
2021/11/18 03:08:43;;;;;;;11.13;6.20;;;7.80;1.00;;;;;;5053200;28;20457;-59
2021/11/18 03:11:11;;;;;;;11.53;7.77;;;8.30;1.00;;;;;;5051453;28;20414;-57
2021/11/18 03:13:37;;;;;;;13.83;8.23;;;8.00;1.00;;;;;;5052982;28;20461;-59
2021/11/18 03:16:05;;;;;;;12.40;7.67;;;7.80;1.00;;;;;;5052531;28;20457;-59
2021/11/18 03:18:31;;;;;;;10.70;6.67;;;8.20;1.00;;;;;;5050309;28;20814;-59
2021/11/18 03:20:59;;;;;;;9.90;8.13;;;8.30;1.00;;;;;;5051211;28;20450;-58
2021/11/18 03:23:25;;;;;;;8.70;7.20;;;8.20;1.00;;;;;;5052515;28;20622;-59
2021/11/18 03:25:52;;;;;;;8.97;7.03;;;8.50;1.00;;;;;;5052172;28;20438;-59
2021/11/18 03:28:20;;;;;;;7.10;6.17;;;8.40;1.00;;;;;;5052419;28;20442;-58
2021/11/18 03:30:47;;;;;;;8.33;5.97;;;8.50;1.00;;;;;;5051445;28;20442;-58
2021/11/18 03:33:19;;;;;;;12.03;8.07;;;8.50;1.00;;;;;;5052488;28;20442;-60
2021/11/18 03:35:45;;;;;;;9.60;8.03;;;;;;;;;;5051931;28;20442;-57
2021/11/18 03:38:12;;;;;;;8.43;7.37;;;8.50;1.00;;;;;;5052594;28;21016;-61
2021/11/18 03:40:38;;;;;;;11.40;7.60;;;8.40;1.00;;;;;;5052064;28;20442;-58
2021/11/18 03:43:05;;;;;;;10.70;7.43;;;8.50;1.00;;;;;;5050304;28;20442;-59
2021/11/18 03:45:32;;;;;;;10.00;6.90;;;8.40;1.00;;;;;;5052557;28;20504;-59
2021/11/18 03:47:58;;;;;;;18.97;8.30;;;8.30;1.00;;;;;;5052020;28;20443;-59
2021/11/18 03:50:26;;;;;;;16.47;8.70;;;8.40;1.00;;;;;;5057007;28;20444;-61
2021/11/18 03:52:52;;;;;;;11.60;8.60;;;8.40;1.00;;;;;;5051299;28;20898;-59
2021/11/18 03:55:19;;;;;;;10.23;8.20;;;;;;;;;;5051937;28;20498;-59
2021/11/18 03:57:45;;;;;;;12.87;7.60;;;8.30;1.00;;;;;;5056430;28;20199;-58
2021/11/18 04:00:20;;;;;;;9.97;8.37;;;8.40;1.00;;;;;;5052157;28;20474;-58
2021/11/18 04:02:47;;;;;;;11.20;7.47;;;;;;;;;;5051606;28;20453;-59
2021/11/18 04:05:13;;;;;;;10.10;7.37;;;8.40;1.00;;;;;;5050501;28;20452;-59
2021/11/18 04:07:40;;;;;;;10.90;6.90;;;8.50;1.00;;;;;;5051898;28;20446;-59
2021/11/18 04:10:08;;;;;;;10.53;6.70;;;8.60;1.00;;;;;;5050489;28;20466;-60
2021/11/18 04:12:34;;;;;;;11.87;7.63;;;8.70;1.00;;;;;;5051404;28;20863;-58
2021/11/18 04:15:00;;;;;;;10.90;7.70;;;;;;;;;;5051088;28;20500;-58
2021/11/18 04:17:25;;;;;;;11.50;6.77;;;8.60;1.00;;;;;;5055166;28;20438;-58
2021/11/18 04:19:51;;;;;;;10.83;7.03;;;8.50;1.00;;;;;;5051935;28;20446;-59
2021/11/18 04:22:17;;;;;;;7.50;6.57;;;8.30;1.00;;;;;;5050688;28;20271;-58
2021/11/18 04:24:44;;;;;;;12.40;6.87;;;8.70;1.00;;;;;;5051137;28;20242;-58
2021/11/18 04:27:10;;;;;;;11.20;6.40;;;8.60;1.00;;;;;;5048783;28;20185;-59
2021/11/18 04:29:36;;;;;;;10.67;6.30;;;8.60;1.00;;;;;;5051565;28;20511;-59
2021/11/18 04:32:11;;;;;;;11.47;7.23;;;8.70;1.00;;;;;;5050345;28;20184;-59
2021/11/18 04:34:37;;;;;;;9.67;6.50;;;8.90;1.00;;;;;;5049933;28;20188;-59
2021/11/18 04:37:04;;;;;;;9.50;6.20;;;8.40;1.00;;;;;;5050508;28;20455;-59
2021/11/18 04:39:31;;;;;;;8.63;5.63;;;;;;;;;;5049697;28;20184;-58
2021/11/18 04:41:56;;;;;;;8.97;5.83;;;8.50;1.00;;;;;;5051297;28;20468;-59
2021/11/18 04:44:22;;;;;;;11.20;6.53;;;8.70;1.00;;;;;;5051022;28;20804;-59
2021/11/18 04:46:49;;;;;;;8.23;5.70;;;8.50;1.00;;;;;;5049262;28;20733;-58
2021/11/18 04:49:15;;;;;;;8.90;5.30;;;8.40;1.00;;;;;;5051157;28;20653;-58
2021/11/18 04:51:40;;;;;;;7.80;6.27;;;8.50;1.00;;;;;;5049522;28;20561;-58
2021/11/18 04:54:06;;;;;;;10.30;6.70;;;;;;;;;;5050491;28;20512;-59
2021/11/18 04:56:33;;;;;;;9.20;6.50;;;8.70;1.00;;;;;;5050828;28;20550;-58
2021/11/18 04:58:59;;;;;;;9.47;6.23;;;8.50;1.00;;;;;;5050887;28;21006;-59
2021/11/18 05:01:26;;;;;;;8.93;5.80;;;;;;;;;;5050292;28;20992;-58
2021/11/18 05:03:52;;;;;;;7.23;5.80;;;8.10;1.00;;;;;;5050186;28;20514;-58
2021/11/18 05:06:18;;;;;;;9.77;6.27;;;8.20;1.00;;;;;;5050347;28;20557;-58
2021/11/18 05:08:45;;;;;;;12.07;6.23;;;8.10;1.00;;;;;;5048739;28;20447;-59
2021/11/18 05:11:11;;;;;;;11.70;6.53;;;;;;;;;;5050579;28;20526;-57
2021/11/18 05:13:39;;;;;;;10.40;7.07;;;8.10;1.00;;;;;;5050337;28;20747;-57
2021/11/18 05:16:09;;;;;;;10.80;5.97;;;8.20;1.00;;;;;;5047594;28;20551;-59
2021/11/18 05:18:34;;;;;;;11.40;6.03;;;8.20;1.00;;;;;;5046413;28;20948;-58
2021/11/18 05:21:02;;;;;;;9.10;5.80;;;8.10;1.00;;;;;;5048765;28;20450;-57
2021/11/18 05:23:28;;;;;;;9.70;6.50;;;8.30;1.00;;;;;;5047463;28;20189;-59
2021/11/18 05:25:55;;;;;;;9.70;6.67;;;8.40;1.00;;;;;;5045371;28;20471;-60
2021/11/18 05:28:21;;;;;;;8.30;5.53;;;;;;;;;;5046158;28;20455;-60
2021/11/18 05:30:47;;;;;;;8.57;6.20;;;8.20;1.00;;;;;;5047389;28;20798;-60
2021/11/18 05:33:14;;;;;;;10.07;6.50;;;8.20;1.00;;;;;;5054823;28;20452;-61
2021/11/18 05:35:40;;;;;;;10.27;5.93;;;;;;;;;;5045101;28;20443;-60
2021/11/18 05:38:07;;;;;;;9.13;6.20;;;8.10;1.00;;;;;;5047777;28;20512;-60
2021/11/18 05:40:35;;;;;;;10.60;5.97;;;8.00;1.00;;;;;;5048869;28;20482;-59
2021/11/18 05:43:02;;;;;;;10.40;6.60;;;8.10;1.00;;;;;;5047820;28;20526;-61
2021/11/18 05:45:30;;;;;;;10.93;6.50;;;8.10;1.00;;;;;;5043713;28;20463;-60
2021/11/18 05:47:57;;;;;;;6.40;5.10;;;8.10;1.00;;;;;;5047550;28;20474;-60
2021/11/18 05:50:24;;;;;;;11.60;6.50;;;8.10;1.00;;;;;;5048467;28;20814;-60
2021/11/18 05:52:50;;;;;;;15.90;6.43;;;;;;;;;;5049023;28;20436;-58
2021/11/18 05:55:18;;;;;;;8.43;6.00;;;8.30;1.00;;;;;;5048700;28;20458;-59
2021/11/18 05:57:46;;;;;;;7.90;5.80;;;8.50;1.00;;;;;;5046196;28;20502;-58
2021/11/18 06:00:14;;;;;;;8.70;5.80;;;;;;;;;;5049510;28;20470;-59
2021/11/18 06:02:40;;;;;;;11.53;6.40;;;;;;;;;;5049221;28;20447;-59
2021/11/18 06:05:05;;;;;;;10.87;6.07;;;8.40;1.00;;;;;;5049837;28;20482;-58
2021/11/18 06:07:32;;;;;;;10.40;6.53;;;8.10;1.00;;;;;;5050119;28;20449;-58
2021/11/18 06:09:58;;;;;;;10.43;5.80;;;8.20;1.00;;;;;;5049484;28;20177;-58
2021/11/18 06:12:24;;;;;;;13.80;6.40;;;8.20;1.00;;;;;;5049321;28;20446;-59
2021/11/18 06:14:52;;;;;;;7.80;5.53;;;8.20;1.00;;;;;;5049517;28;20192;-58
2021/11/18 06:17:18;;;;;;;13.37;6.47;;;8.00;1.00;;;;;;5048864;28;20611;-58
2021/11/18 06:19:44;;;;;;;12.70;6.00;;;;;;;;;;5049745;28;20974;-58
2021/11/18 06:22:10;;;;;;;13.70;6.57;;;8.50;1.00;;;;;;5049349;28;20238;-58
2021/11/18 06:24:36;;;;;;;14.90;7.70;;;8.20;1.00;;;;;;5048423;28;20470;-58
2021/11/18 06:27:03;;;;;;;9.40;7.13;;;;;;;;;;5049040;28;20481;-58
2021/11/18 06:29:30;;;;;;;9.83;5.40;;;8.30;1.00;;;;;;5048532;28;20451;-58
2021/11/18 06:31:57;;;;;;;9.47;7.07;;;;;;;;;;5048968;28;20475;-59
2021/11/18 06:34:23;;;;;;;9.93;5.90;;;8.50;1.00;;;;;;5049353;28;20444;-58
2021/11/18 06:36:49;;;;;;;6.40;4.90;;;8.40;1.00;;;;;;5051019;28;20470;-58
2021/11/18 06:39:15;;;;;;;9.60;6.20;;;8.30;1.00;;;;;;5053762;28;21013;-57
2021/11/18 06:41:42;;;;;;;12.37;6.37;;;8.20;1.00;;;;;;5053778;28;20177;-58
2021/11/18 06:44:08;;;;;;;11.10;6.83;;;;;;;;;;5053690;28;20443;-58
2021/11/18 06:46:36;;;;;;;13.33;6.63;;;8.40;1.00;;;;;;5054408;28;20514;-57
2021/11/18 06:49:02;;;;;;;13.70;6.40;;;;;;;;;;5053352;28;20533;-58
2021/11/18 06:51:28;;;;;;;9.03;5.80;;;;;;;;;;5053348;28;20831;-59
2021/11/18 06:53:56;;;;;;;12.20;6.57;;;;;;;;;;5051781;28;20485;-58
2021/11/18 06:56:22;;;;;;;12.70;7.70;;;8.60;1.00;;;;;;5053736;28;20451;-59
2021/11/18 06:58:49;;;;;;;11.77;5.93;;;8.50;1.00;;;;;;5053563;28;20928;-57
2021/11/18 07:01:14;;;;;;;10.73;6.10;;;8.60;1.00;;;;;;5053221;28;20936;-59
2021/11/18 07:03:40;;;;;;;8.47;5.67;;;;;;;;;;5053034;28;20450;-58
2021/11/18 07:06:08;;;;;;;10.90;6.77;;;8.70;1.00;;;;;;5053239;28;20211;-58
2021/11/18 07:08:35;;;;;;;12.43;6.10;;;8.70;1.00;;;;;;5053367;28;20469;-58
2021/11/18 07:11:01;;;;;;;10.10;5.60;;;;;;;;;;5052524;28;20467;-57
2021/11/18 07:13:29;;;;;;;9.00;5.83;;;8.80;1.00;;;;;;5053095;28;20470;-59
2021/11/18 07:15:55;;;;;;;10.77;5.47;;;;;;;;;;5051857;28;20476;-58
2021/11/18 07:18:22;;;;;;;9.57;6.00;;;;;;;;;;5051945;28;20493;-58
2021/11/18 07:20:49;;;;;;;14.63;5.70;;;9.00;1.00;;;;;;5052672;28;20530;-57
2021/11/18 07:23:15;;;;;;;7.67;5.00;;;9.10;1.00;;;;;;5053059;28;20425;-59
2021/11/18 07:25:42;;;;;;;9.53;5.87;;;8.90;1.00;;;;;;5052518;28;20487;-61
2021/11/18 07:28:09;;;;;;;17.10;10.37;;;9.10;1.00;;;;;;5052795;28;20417;-58
2021/11/18 07:30:35;;;;;;;16.00;7.80;;;9.00;1.00;;;;;;5053062;28;20478;-60
2021/11/18 07:33:00;;;;;;;7.53;5.07;;;9.20;1.00;;;;;;5054112;28;20474;-59
2021/11/18 07:35:27;;;;;;;9.20;4.97;;;9.10;1.00;;;;;;5052188;28;20494;-58
2021/11/18 07:37:54;;;;;;;11.33;4.83;;;9.20;1.00;;;;;;5052238;28;20617;-60
2021/11/18 07:40:21;;;;;;;15.70;6.93;;;8.90;1.00;;;;;;5052847;28;20531;-59
2021/11/18 07:42:49;;;;;;;12.87;5.50;;;9.10;1.00;;;;;;5052490;28;20867;-59
2021/11/18 07:45:16;;;;;;;12.30;5.93;;;9.20;1.00;;;;;;5052776;28;20527;-58
2021/11/18 07:47:42;;;;;;;8.77;5.87;;;9.30;1.00;;;;;;5052008;28;20548;-59
2021/11/18 07:50:09;;;;;;;7.50;4.87;;;9.30;1.00;;;;;;5052239;28;20978;-58
2021/11/18 07:52:36;;;;;;;9.70;5.47;;;;;;;;;;5052930;28;20187;-58
2021/11/18 07:55:03;;;;;;;13.20;5.00;;;9.40;1.00;;;;;;5052335;28;21730;-59
2021/11/18 07:57:29;;;;;;;6.97;5.23;;;9.50;1.00;;;;;;5052258;28;20425;-58
2021/11/18 07:59:55;;;;;;;10.27;5.57;;;;;;;;;;5052261;28;20928;-59
2021/11/18 08:02:21;;;;;;;9.37;5.33;;;;;;;;;;5051695;28;20578;-59
2021/11/18 08:04:47;;;;;;;7.70;4.10;;;;;;;;;;5061343;28;20469;-58
2021/11/18 08:07:12;;;;;;;7.20;4.40;;;9.40;1.00;;;;;;5050903;28;20443;-59
2021/11/18 08:09:38;;;;;;;8.53;4.40;;;;;;;;;;5051971;28;20451;-58
2021/11/18 08:12:05;;;;;;;6.93;4.07;;;9.40;1.00;;;;;;5051828;28;20433;-59
2021/11/18 08:14:31;;;;;;;7.40;4.90;;;;;;;;;;5052481;28;20781;-59
2021/11/18 08:16:58;;;;;;;8.60;4.43;;;9.50;1.00;;;;;;5052045;28;20449;-58
2021/11/18 08:19:24;;;;;;;7.97;4.60;;;9.60;1.00;;;;;;5051467;28;20512;-58
2021/11/18 08:21:51;;;;;;;6.23;4.00;;;9.70;1.00;;;;;;5056340;28;20610;-58
2021/11/18 08:24:18;;;;;;;8.57;4.73;;;9.80;1.00;;;;;;5059503;28;20435;-60
2021/11/18 08:26:45;;;;;;;5.10;3.67;;;9.90;1.00;;;;;;5051819;28;20474;-58
2021/11/18 08:29:13;;;;;;;10.30;4.20;;;9.90;1.00;;;;;;5060505;28;20503;-58
2021/11/18 08:31:39;;;;;;;10.80;4.07;;;;;;;;;;5053171;28;20992;-59
2021/11/18 08:34:05;;;;;;;8.90;4.63;;;;;;;;;;5051833;28;20478;-58
2021/11/18 08:36:34;;;;;;;8.20;4.37;;;;;;;;;;5056789;28;20940;-57
2021/11/18 08:39:00;;;;;;;7.20;3.60;;;;;;;;;;5063031;28;20428;-59
2021/11/18 08:41:25;;;;;;;8.13;3.70;;;9.60;1.00;;;;;;5063608;28;20858;-59
2021/11/18 08:43:54;;;;;;;13.13;4.60;;;9.70;1.00;;;;;;5056837;28;20450;-59
2021/11/18 08:46:20;;;;;;;6.33;3.80;;;;;;;;;;5057139;28;20216;-58
2021/11/18 08:48:46;;;;;;;9.60;4.40;;;10.00;1.00;;;;;;5062376;28;20450;-61
2021/11/18 08:51:14;;;;;;;9.83;3.70;;;10.30;1.00;;;;;;5057858;28;20860;-59
2021/11/18 08:53:42;;;;;;;8.33;4.10;;;10.40;1.00;;;;;;5057659;28;20443;-58
2021/11/18 08:56:08;;;;;;;7.60;4.10;;;;;;;;;;5057316;28;20546;-59
2021/11/18 08:58:36;;;;;;;5.43;3.47;;;10.30;1.00;;;;;;5055594;28;20514;-59
2021/11/18 09:01:07;;;;;;;12.03;4.50;;;10.30;1.00;;;;;;5061336;28;20510;-58
2021/11/18 09:03:34;;;;;;;7.13;4.30;;;;;;;;;;5059948;28;20449;-55
2021/11/18 09:06:02;;;;;;;10.03;4.30;;;10.30;1.00;;;;;;5052331;28;20473;-60
2021/11/18 09:08:29;;;;;;;6.30;3.97;;;;;;;;;;5048228;28;20572;-60
2021/11/18 09:10:55;;;;;;;9.40;4.13;;;;;;;;;;5050572;28;20430;-61
2021/11/18 09:13:21;;;;;;;6.97;4.10;;;10.40;1.00;;;;;;5050860;28;20439;-60
2021/11/18 09:15:48;;;;;;;11.20;4.57;;;10.50;1.00;;;;;;5051119;28;20466;-62
2021/11/18 09:18:13;;;;;;;12.23;4.10;;;10.70;1.00;;;;;;5050722;28;20442;-61
2021/11/18 09:20:41;;;;;;;12.83;4.50;;;10.50;1.00;;;;;;5050658;28;20585;-60
2021/11/18 09:23:08;;;;;;;8.97;4.50;;;10.50;1.00;;;;;;5050160;28;20891;-60
2021/11/18 09:25:38;;;;;;;9.33;3.77;;;10.60;1.00;;;;;;5050288;28;20459;-62
2021/11/18 09:28:05;;;;;;;6.60;3.63;;;10.60;1.00;;;;;;5050634;28;20434;-61
2021/11/18 09:30:46;;;;;;;17.10;3.93;;;10.60;1.00;;;;;;5051214;28;20776;-61
2021/11/18 09:33:12;;;;;;;9.70;4.07;;;;;;;;;;5056154;28;20439;-60
2021/11/18 09:35:43;;;;;;;6.43;3.23;;;10.40;1.00;;;;;;5059417;28;20441;-60
2021/11/18 09:38:10;;;;;;;11.57;5.30;;;10.50;1.00;;;;;;5049830;28;20442;-62
2021/11/18 09:40:57;;;;;;;11.83;4.33;;;8.10;1.00;;;;;;5049661;28;20801;-62
2021/11/18 09:43:49;;;;;;;9.50;4.80;;;10.50;1.00;;;;;;5050356;28;21018;-60
2021/11/18 09:46:26;;;;;;;7.40;3.73;;;10.60;1.00;;;;;;5056994;28;20473;-61
2021/11/18 09:49:27;;;;;;;9.77;4.57;;;10.70;1.00;;;;;;5049947;28;20588;-62
2021/11/18 09:52:40;;;;;;;12.67;4.80;;;10.60;1.00;;;;;;5050401;28;20492;-62
2021/11/18 09:55:08;;;;;;;8.83;4.47;;;;;;;;;;5048944;28;20506;-62
2021/11/18 09:57:49;;;;;;;7.27;3.47;;;;;;;;;;5050806;28;20531;-61
2021/11/18 10:00:37;;;;;;;6.40;4.07;;;10.40;1.00;;;;;;5050423;28;20443;-63
2021/11/18 10:03:09;;;;;;;8.53;4.10;;;10.60;1.00;;;;;;5050269;28;20447;-61
2021/11/18 10:05:56;;;;;;;6.57;3.93;;;10.70;1.00;;;;;;5050575;28;20474;-62
2021/11/18 10:08:27;;;;;;;11.70;4.20;;;10.60;1.00;;;;;;5050379;28;20450;-63
2021/11/18 10:11:31;;;;;;;7.07;3.90;;;10.60;1.00;;;;;;5050343;28;20445;-61
2021/11/18 10:14:17;;;;;;;8.33;5.13;;;10.50;1.00;;;;;;5046748;28;20910;-63
2021/11/18 10:16:56;;;;;;;7.70;4.10;;;10.60;1.00;;;;;;5050439;28;20481;-62
2021/11/18 10:19:35;;;;;;;7.93;5.10;;;10.60;1.00;;;;;;5050289;28;20420;-60
2021/11/18 10:22:01;;;;;;;11.67;4.50;;;;;;;;;;5050442;28;20922;-60
2021/11/18 10:24:32;;;;;;;9.70;5.05;;;10.70;1.00;;;;;;5050647;28;20438;-62
2021/11/18 10:27:33;;;;;;;7.00;4.80;;;10.70;1.00;;;;;;5050694;28;21052;-61
2021/11/18 10:30:11;;;;;;;13.47;4.70;;;10.60;1.00;;;;;;5047627;28;20430;-61
2021/11/18 10:33:07;;;;;;;7.00;4.67;;;10.70;1.00;;;;;;5050145;28;20568;-62
2021/11/18 10:35:40;;;;;;;9.13;4.47;;;10.80;1.00;;;;;;5049984;28;20439;-61
2021/11/18 10:38:36;;;;;;;12.23;5.63;;;10.80;1.00;;;;;;5050282;28;20485;-62
2021/11/18 10:41:21;;;;;;;10.27;5.83;;;11.00;1.00;;;;;;5047284;28;20442;-61
2021/11/18 10:44:13;;;;;;;17.50;5.40;;;10.90;1.00;;;;;;5050064;28;20523;-62
2021/11/18 10:46:47;;;;;;;8.27;5.10;;;10.90;1.00;;;;;;5043342;28;20482;-62
2021/11/18 10:49:17;;;;;;;8.60;5.23;;;10.90;1.00;;;;;;5048291;28;20469;-61
2021/11/18 10:51:51;;;;;;;6.43;4.73;;;10.80;1.00;;;;;;5050173;28;20478;-62
2021/11/18 10:54:37;;;;;;;11.40;5.50;;;10.80;1.00;;;;;;5049778;28;20885;-62
2021/11/18 10:57:21;;;;;;;6.30;4.63;;;10.80;1.00;;;;;;5050029;28;20443;-62
2021/11/18 10:59:51;;;;;;;10.70;5.13;;;10.90;1.00;;;;;;5050064;28;20414;-61
2021/11/18 11:02:24;;;;;;;7.47;4.33;;;11.00;1.00;;;;;;5050034;28;20532;-60
2021/11/18 11:04:54;;;;;;;13.33;4.63;;;10.70;1.00;;;;;;5049569;28;20509;-61
2021/11/18 11:07:42;;;;;;;8.27;4.23;;;11.00;1.00;;;;;;5049509;28;20471;-60
2021/11/18 11:10:12;;;;;;;14.33;5.60;;;;;;;;;;5049774;28;20903;-61
2021/11/18 11:13:06;;;;;;;10.10;4.10;;;11.00;1.00;;;;;;5049899;28;20481;-61
2021/11/18 11:15:47;;;;;;;7.40;4.40;;;10.90;1.00;;;;;;5049538;28;20424;-62
2021/11/18 11:18:42;;;;;;;8.50;4.43;;;11.20;1.00;;;;;;5049153;28;20728;-62
2021/11/18 11:21:25;;;;;;;7.63;4.60;;;11.40;1.00;;;;;;5049727;28;20434;-61
2021/11/18 11:24:13;;;;;;;9.23;5.07;;;11.30;1.00;;;;;;5052479;28;20417;-61
2021/11/18 11:26:55;;;;;;;9.07;5.40;;;11.30;1.00;;;;;;5052626;28;20501;-62
2021/11/18 11:29:35;;;;;;;13.90;4.90;;;11.40;1.00;;;;;;5053202;28;20478;-62
2021/11/18 11:32:16;;;;;;;10.20;5.43;;;11.30;1.00;;;;;;5052991;28;20477;-63
2021/11/18 11:34:57;;;;;;;12.27;5.27;;;11.30;1.00;;;;;;5052617;28;20433;-62
2021/11/18 11:37:50;;;;;;;11.20;5.27;;;11.10;1.00;;;;;;5053067;28;20427;-62
2021/11/18 11:40:35;;;;;;;18.40;5.93;;;11.40;1.00;;;;;;5053048;28;20477;-61
2021/11/18 11:43:22;;;;;;;9.70;4.77;;;11.40;1.00;;;;;;5052640;28;20851;-61
2021/11/18 11:45:57;;;;;;;7.10;4.97;;;11.50;1.00;;;;;;5052745;28;21108;-62
2021/11/18 11:48:23;;;;;;;8.13;4.87;;;;;;;;;;5052876;28;20544;-60
2021/11/18 11:50:54;;;;;;;6.03;4.00;;;11.60;1.00;;;;;;5051203;28;20435;-61
2021/11/18 11:53:26;;;;;;;7.70;4.70;;;11.60;1.00;;;;;;5052826;28;20427;-62
2021/11/18 11:56:04;;;;;;;8.73;4.90;;;11.70;1.00;;;;;;5052854;28;20447;-61
2021/11/18 11:59:02;;;;;;;7.00;4.90;;;11.40;1.00;;;;;;5053064;28;20401;-60
2021/11/18 12:01:53;;;;;;;8.60;5.00;;;11.30;1.00;;;;;;5037157;28;20442;-61
2021/11/18 12:04:37;;;;;;;9.00;5.00;;;11.50;1.00;;;;;;5052292;28;20959;-61
2021/11/18 12:07:21;;;;;;;10.70;5.60;;;11.60;1.00;;;;;;5052284;28;20445;-61
2021/11/18 12:10:24;;;;;;;12.90;5.20;;;11.50;1.00;;;;;;5051228;28;20408;-62
2021/11/18 12:13:08;;;;;;;9.03;4.70;;;;;;;;;;5052741;28;20424;-60
2021/11/18 12:15:45;;;;;;;10.07;5.20;;;11.40;1.00;;;;;;5052472;28;20442;-61
2021/11/18 12:18:22;;;;;;;9.37;5.30;;;11.20;1.00;;;;;;5070952;28;20421;-61
2021/11/18 12:20:48;;;;;;;9.60;5.50;;;11.70;1.00;;;;;;5072723;28;20430;-61
2021/11/18 12:23:15;;;;;;;10.00;5.10;;;11.90;1.00;;;;;;5072228;28;20416;-60
2021/11/18 12:26:12;;;;;;;8.50;5.03;;;11.80;1.00;;;;;;5061466;28;20493;-61
2021/11/18 12:28:53;;;;;;;8.57;4.40;;;11.80;1.00;;;;;;5052137;28;20491;-60
2021/11/18 12:31:26;;;;;;;9.30;5.10;;;12.00;1.00;;;;;;5052248;28;20944;-61
2021/11/18 12:34:02;;;;;;;7.40;5.00;;;12.20;1.00;;;;;;5051007;28;20955;-61
2021/11/18 12:36:28;;;;;;;11.83;4.40;;;;;;;;;;5052120;28;20963;-61
2021/11/18 12:39:31;;;;;;;10.83;4.90;;;12.50;1.00;;;;;;5051998;28;20429;-63
2021/11/18 12:42:33;;;;;;;7.53;5.20;;;12.20;1.00;;;;;;5052047;28;21219;-61
2021/11/18 12:45:18;;;;;;;6.27;4.30;;;12.00;1.00;;;;;;5051790;28;20497;-61
2021/11/18 12:47:49;;;;;;;8.47;5.43;;;11.80;1.00;;;;;;5051527;28;20432;-60
2021/11/18 12:50:36;;;;;;;8.97;5.20;;;11.80;1.00;;;;;;5051634;28;20442;-61
2021/11/18 12:53:10;;;;;;;6.23;4.70;;;11.70;1.00;;;;;;5051992;28;20908;-62
2021/11/18 12:56:03;;;;;;;10.07;5.77;;;11.90;1.00;;;;;;5051457;28;20809;-61
2021/11/18 12:58:50;;;;;;;9.43;5.17;;;11.70;1.00;;;;;;5051873;28;20492;-61
2021/11/18 13:01:22;;;;;;;6.90;5.50;;;11.70;1.00;;;;;;5050995;28;20438;-61
2021/11/18 13:03:51;;;;;;;10.70;5.13;;;;;;;;;;5051202;28;20451;-62
2021/11/18 13:06:28;;;;;;;8.93;5.07;;;11.70;1.00;;;;;;5051320;28;20440;-60
2021/11/18 13:08:59;;;;;;;11.57;5.27;;;11.90;1.00;;;;;;5051367;28;20442;-61
2021/11/18 13:11:25;;;;;;;8.30;5.60;;;;;;;;;;5051448;28;20435;-60
2021/11/18 13:14:12;;;;;;;11.13;5.77;;;11.70;1.00;;;;;;5051373;28;20462;-60
2021/11/18 13:16:57;;;;;;;6.13;4.87;;;11.80;1.00;;;;;;5051186;28;20438;-60
2021/11/18 13:19:37;;;;;;;9.27;5.10;;;11.90;1.00;;;;;;5050743;28;21274;-61
2021/11/18 13:22:05;;;;;;;9.33;5.37;;;11.90;1.00;;;;;;5051017;28;20430;-62
2021/11/18 13:24:34;;;;;;;11.73;5.80;;;11.80;1.00;;;;;;5051004;28;20566;-61
2021/11/18 13:27:00;;;;;;;9.60;6.00;;;;;;;;;;5049000;28;20450;-61
2021/11/18 13:29:28;;;;;;;7.43;5.67;;;11.80;1.00;;;;;;5050895;28;20439;-60
2021/11/18 13:32:06;;;;;;;9.10;5.07;;;11.80;1.00;;;;;;5050824;28;20449;-62
2021/11/18 13:35:01;;;;;;;6.23;5.07;;;11.80;1.00;;;;;;5050831;28;20449;-61
2021/11/18 13:37:31;;;;;;;11.83;5.70;;;11.90;1.00;;;;;;5043210;28;20440;-60